sensor_id;sensor_type;location;lat;lon;timestamp;pressure;altitude;pressure_sealevel;temperature
71807;BMP280;59655;42.590;23.364;2023-04-28T00:02:13;91632.50;;;5.32
71807;BMP280;59655;42.590;23.364;2023-04-28T00:04:38;91632.06;;;5.28
71807;BMP280;59655;42.590;23.364;2023-04-28T00:07:03;91631.50;;;5.35
71807;BMP280;59655;42.590;23.364;2023-04-28T00:09:29;91630.41;;;5.24
71807;BMP280;59655;42.590;23.364;2023-04-28T00:11:54;91632.75;;;5.28
71807;BMP280;59655;42.590;23.364;2023-04-28T00:14:20;91628.50;;;5.25
71807;BMP280;59655;42.590;23.364;2023-04-28T00:16:45;91635.53;;;5.11
71807;BMP280;59655;42.590;23.364;2023-04-28T00:19:11;91626.75;;;5.03
71807;BMP280;59655;42.590;23.364;2023-04-28T00:21:36;91622.97;;;4.98
71807;BMP280;59655;42.590;23.364;2023-04-28T00:24:02;91629.84;;;5.07
71807;BMP280;59655;42.590;23.364;2023-04-28T00:26:27;91630.59;;;5.02
71807;BMP280;59655;42.590;23.364;2023-04-28T00:28:52;91623.69;;;4.99
71807;BMP280;59655;42.590;23.364;2023-04-28T00:31:18;91624.34;;;5.05
71807;BMP280;59655;42.590;23.364;2023-04-28T00:33:43;91634.03;;;4.91
71807;BMP280;59655;42.590;23.364;2023-04-28T00:36:09;91628.53;;;4.95
71807;BMP280;59655;42.590;23.364;2023-04-28T00:38:36;91628.94;;;4.99
71807;BMP280;59655;42.590;23.364;2023-04-28T00:41:02;91631.16;;;4.95
71807;BMP280;59655;42.590;23.364;2023-04-28T00:43:27;91632.56;;;4.96
71807;BMP280;59655;42.590;23.364;2023-04-28T00:45:53;91635.38;;;4.98
71807;BMP280;59655;42.590;23.364;2023-04-28T00:48:18;91632.34;;;4.94
71807;BMP280;59655;42.590;23.364;2023-04-28T00:50:44;91627.81;;;4.94
71807;BMP280;59655;42.590;23.364;2023-04-28T00:53:11;91627.41;;;4.85
71807;BMP280;59655;42.590;23.364;2023-04-28T00:55:37;91627.88;;;4.83
71807;BMP280;59655;42.590;23.364;2023-04-28T00:58:04;91628.31;;;4.87
71807;BMP280;59655;42.590;23.364;2023-04-28T01:00:29;91625.22;;;4.89
71807;BMP280;59655;42.590;23.364;2023-04-28T01:02:56;91634.28;;;4.88
71807;BMP280;59655;42.590;23.364;2023-04-28T01:05:24;91631.41;;;4.91
71807;BMP280;59655;42.590;23.364;2023-04-28T01:07:49;91637.81;;;4.96
71807;BMP280;59655;42.590;23.364;2023-04-28T01:10:15;91638.84;;;4.87
71807;BMP280;59655;42.590;23.364;2023-04-28T01:12:40;91634.84;;;4.75
71807;BMP280;59655;42.590;23.364;2023-04-28T01:15:08;91635.34;;;4.79
71807;BMP280;59655;42.590;23.364;2023-04-28T01:17:34;91635.38;;;4.73
71807;BMP280;59655;42.590;23.364;2023-04-28T01:19:59;91635.63;;;4.70
71807;BMP280;59655;42.590;23.364;2023-04-28T01:22:25;91628.00;;;4.66
71807;BMP280;59655;42.590;23.364;2023-04-28T01:24:50;91633.00;;;4.70
71807;BMP280;59655;42.590;23.364;2023-04-28T01:27:16;91633.56;;;4.57
71807;BMP280;59655;42.590;23.364;2023-04-28T01:29:41;91635.44;;;4.62
71807;BMP280;59655;42.590;23.364;2023-04-28T01:32:06;91632.53;;;4.66
71807;BMP280;59655;42.590;23.364;2023-04-28T01:34:32;91643.31;;;4.62
71807;BMP280;59655;42.590;23.364;2023-04-28T01:36:57;91641.47;;;4.51
71807;BMP280;59655;42.590;23.364;2023-04-28T01:39:23;91637.19;;;4.48
71807;BMP280;59655;42.590;23.364;2023-04-28T01:41:48;91635.97;;;4.55
71807;BMP280;59655;42.590;23.364;2023-04-28T01:44:13;91640.13;;;4.39
71807;BMP280;59655;42.590;23.364;2023-04-28T01:46:39;91641.69;;;4.53
71807;BMP280;59655;42.590;23.364;2023-04-28T01:49:04;91642.88;;;4.58
71807;BMP280;59655;42.590;23.364;2023-04-28T01:51:30;91638.91;;;4.40
71807;BMP280;59655;42.590;23.364;2023-04-28T01:53:56;91633.13;;;4.47
71807;BMP280;59655;42.590;23.364;2023-04-28T01:56:22;91634.88;;;4.33
71807;BMP280;59655;42.590;23.364;2023-04-28T01:58:47;91639.91;;;4.37
71807;BMP280;59655;42.590;23.364;2023-04-28T02:01:13;91634.16;;;4.38
71807;BMP280;59655;42.590;23.364;2023-04-28T02:03:38;91640.16;;;4.28
71807;BMP280;59655;42.590;23.364;2023-04-28T02:06:03;91640.16;;;4.33
71807;BMP280;59655;42.590;23.364;2023-04-28T02:08:29;91633.44;;;4.38
71807;BMP280;59655;42.590;23.364;2023-04-28T02:10:55;91635.09;;;4.41
71807;BMP280;59655;42.590;23.364;2023-04-28T02:13:22;91647.56;;;4.29
71807;BMP280;59655;42.590;23.364;2023-04-28T02:15:47;91639.91;;;4.31
71807;BMP280;59655;42.590;23.364;2023-04-28T02:18:13;91639.00;;;4.23
71807;BMP280;59655;42.590;23.364;2023-04-28T02:20:38;91649.50;;;4.23
71807;BMP280;59655;42.590;23.364;2023-04-28T02:23:03;91646.13;;;4.28
71807;BMP280;59655;42.590;23.364;2023-04-28T02:25:29;91657.66;;;4.19
71807;BMP280;59655;42.590;23.364;2023-04-28T02:27:54;91654.75;;;4.23
71807;BMP280;59655;42.590;23.364;2023-04-28T02:30:20;91652.84;;;4.24
71807;BMP280;59655;42.590;23.364;2023-04-28T02:32:46;91650.41;;;4.31
71807;BMP280;59655;42.590;23.364;2023-04-28T02:35:13;91658.78;;;4.30
71807;BMP280;59655;42.590;23.364;2023-04-28T02:37:38;91646.56;;;4.38
71807;BMP280;59655;42.590;23.364;2023-04-28T02:40:04;91655.84;;;4.45
71807;BMP280;59655;42.590;23.364;2023-04-28T02:42:29;91659.75;;;4.27
71807;BMP280;59655;42.590;23.364;2023-04-28T02:44:56;91661.94;;;4.17
71807;BMP280;59655;42.590;23.364;2023-04-28T02:47:21;91667.19;;;4.17
71807;BMP280;59655;42.590;23.364;2023-04-28T02:49:47;91669.38;;;4.07
71807;BMP280;59655;42.590;23.364;2023-04-28T02:52:12;91664.09;;;4.18
71807;BMP280;59655;42.590;23.364;2023-04-28T02:54:38;91662.91;;;4.19
71807;BMP280;59655;42.590;23.364;2023-04-28T02:57:03;91668.41;;;4.16
71807;BMP280;59655;42.590;23.364;2023-04-28T02:59:29;91666.72;;;4.18
71807;BMP280;59655;42.590;23.364;2023-04-28T03:01:54;91665.53;;;4.14
71807;BMP280;59655;42.590;23.364;2023-04-28T03:04:20;91661.91;;;4.22
71807;BMP280;59655;42.590;23.364;2023-04-28T03:06:45;91672.63;;;4.25
71807;BMP280;59655;42.590;23.364;2023-04-28T03:09:11;91672.69;;;4.19
71807;BMP280;59655;42.590;23.364;2023-04-28T03:11:37;91679.16;;;4.12
71807;BMP280;59655;42.590;23.364;2023-04-28T03:14:02;91679.88;;;4.01
71807;BMP280;59655;42.590;23.364;2023-04-28T03:16:28;91683.94;;;4.08
71807;BMP280;59655;42.590;23.364;2023-04-28T03:18:53;91670.56;;;4.12
71807;BMP280;59655;42.590;23.364;2023-04-28T03:21:19;91681.00;;;4.23
71807;BMP280;59655;42.590;23.364;2023-04-28T03:23:44;91681.03;;;4.17
71807;BMP280;59655;42.590;23.364;2023-04-28T03:26:10;91686.53;;;4.14
71807;BMP280;59655;42.590;23.364;2023-04-28T03:28:35;91693.72;;;4.08
71807;BMP280;59655;42.590;23.364;2023-04-28T03:31:01;91698.72;;;4.11
71807;BMP280;59655;42.590;23.364;2023-04-28T03:33:27;91697.28;;;4.16
71807;BMP280;59655;42.590;23.364;2023-04-28T03:35:52;91698.41;;;4.20
71807;BMP280;59655;42.590;23.364;2023-04-28T03:38:18;91709.94;;;4.06
71807;BMP280;59655;42.590;23.364;2023-04-28T03:40:44;91718.75;;;4.09
71807;BMP280;59655;42.590;23.364;2023-04-28T03:43:10;91704.00;;;4.00
71807;BMP280;59655;42.590;23.364;2023-04-28T03:45:35;91713.28;;;4.07
71807;BMP280;59655;42.590;23.364;2023-04-28T03:48:00;91713.53;;;4.03
71807;BMP280;59655;42.590;23.364;2023-04-28T03:50:26;91722.84;;;4.04
71807;BMP280;59655;42.590;23.364;2023-04-28T03:52:51;91714.97;;;4.04
71807;BMP280;59655;42.590;23.364;2023-04-28T03:55:17;91721.16;;;4.12
71807;BMP280;59655;42.590;23.364;2023-04-28T03:57:42;91729.50;;;4.16
71807;BMP280;59655;42.590;23.364;2023-04-28T04:00:08;91723.06;;;4.17
71807;BMP280;59655;42.590;23.364;2023-04-28T04:02:34;91723.75;;;4.18
71807;BMP280;59655;42.590;23.364;2023-04-28T04:04:59;91728.72;;;4.27
71807;BMP280;59655;42.590;23.364;2023-04-28T04:07:25;91742.06;;;4.40
71807;BMP280;59655;42.590;23.364;2023-04-28T04:09:50;91741.28;;;4.51
71807;BMP280;59655;42.590;23.364;2023-04-28T04:12:16;91745.09;;;4.56
71807;BMP280;59655;42.590;23.364;2023-04-28T04:14:41;91749.63;;;4.55
71807;BMP280;59655;42.590;23.364;2023-04-28T04:17:07;91745.28;;;4.63
71807;BMP280;59655;42.590;23.364;2023-04-28T04:19:33;91745.03;;;4.67
71807;BMP280;59655;42.590;23.364;2023-04-28T04:21:58;91742.16;;;4.71
71807;BMP280;59655;42.590;23.364;2023-04-28T04:24:28;91752.41;;;4.74
71807;BMP280;59655;42.590;23.364;2023-04-28T04:26:53;91751.22;;;4.75
71807;BMP280;59655;42.590;23.364;2023-04-28T04:29:18;91750.00;;;4.76
71807;BMP280;59655;42.590;23.364;2023-04-28T04:31:44;91756.00;;;4.77
71807;BMP280;59655;42.590;23.364;2023-04-28T04:34:10;91756.47;;;4.75
71807;BMP280;59655;42.590;23.364;2023-04-28T04:36:35;91752.34;;;4.86
71807;BMP280;59655;42.590;23.364;2023-04-28T04:39:01;91760.94;;;4.86
71807;BMP280;59655;42.590;23.364;2023-04-28T04:41:26;91755.91;;;4.88
71807;BMP280;59655;42.590;23.364;2023-04-28T04:43:52;91759.97;;;4.95
71807;BMP280;59655;42.590;23.364;2023-04-28T04:46:17;91758.47;;;4.99
71807;BMP280;59655;42.590;23.364;2023-04-28T04:48:42;91763.94;;;5.07
71807;BMP280;59655;42.590;23.364;2023-04-28T04:51:08;91761.81;;;5.00
71807;BMP280;59655;42.590;23.364;2023-04-28T04:53:34;91767.53;;;5.04
71807;BMP280;59655;42.590;23.364;2023-04-28T04:55:59;91774.00;;;5.03
71807;BMP280;59655;42.590;23.364;2023-04-28T04:58:25;91774.22;;;5.05
71807;BMP280;59655;42.590;23.364;2023-04-28T05:00:50;91781.59;;;5.12
71807;BMP280;59655;42.590;23.364;2023-04-28T05:03:15;91783.03;;;5.13
71807;BMP280;59655;42.590;23.364;2023-04-28T05:05:41;91780.56;;;5.21
71807;BMP280;59655;42.590;23.364;2023-04-28T05:08:06;91792.28;;;5.26
71807;BMP280;59655;42.590;23.364;2023-04-28T05:10:32;91782.22;;;5.30
71807;BMP280;59655;42.590;23.364;2023-04-28T05:12:58;91781.94;;;5.33
71807;BMP280;59655;42.590;23.364;2023-04-28T05:15:23;91792.78;;;5.18
71807;BMP280;59655;42.590;23.364;2023-04-28T05:17:48;91786.53;;;5.27
71807;BMP280;59655;42.590;23.364;2023-04-28T05:20:14;91781.75;;;5.26
71807;BMP280;59655;42.590;23.364;2023-04-28T05:22:40;91789.63;;;5.31
71807;BMP280;59655;42.590;23.364;2023-04-28T05:25:06;91777.44;;;5.28
71807;BMP280;59655;42.590;23.364;2023-04-28T05:27:31;91781.19;;;5.33
71807;BMP280;59655;42.590;23.364;2023-04-28T05:29:56;91772.81;;;5.34
71807;BMP280;59655;42.590;23.364;2023-04-28T05:32:24;91775.50;;;5.29
71807;BMP280;59655;42.590;23.364;2023-04-28T05:34:49;91775.94;;;5.33
71807;BMP280;59655;42.590;23.364;2023-04-28T05:37:14;91773.50;;;5.40
71807;BMP280;59655;42.590;23.364;2023-04-28T05:39:40;91765.38;;;5.38
71807;BMP280;59655;42.590;23.364;2023-04-28T05:42:05;91771.81;;;5.43
71807;BMP280;59655;42.590;23.364;2023-04-28T05:44:31;91767.88;;;5.55
71807;BMP280;59655;42.590;23.364;2023-04-28T05:46:56;91781.00;;;5.61
71807;BMP280;59655;42.590;23.364;2023-04-28T05:49:21;91774.19;;;5.47
71807;BMP280;59655;42.590;23.364;2023-04-28T05:51:47;91779.63;;;5.54
71807;BMP280;59655;42.590;23.364;2023-04-28T05:54:12;91781.06;;;5.50
71807;BMP280;59655;42.590;23.364;2023-04-28T05:56:37;91782.03;;;5.52
71807;BMP280;59655;42.590;23.364;2023-04-28T05:59:03;91776.00;;;5.57
71807;BMP280;59655;42.590;23.364;2023-04-28T06:01:30;91780.38;;;5.49
71807;BMP280;59655;42.590;23.364;2023-04-28T06:03:56;91789.78;;;5.39
71807;BMP280;59655;42.590;23.364;2023-04-28T06:06:23;91788.06;;;5.47
71807;BMP280;59655;42.590;23.364;2023-04-28T06:08:48;91791.41;;;5.48
71807;BMP280;59655;42.590;23.364;2023-04-28T06:11:14;91782.25;;;5.54
71807;BMP280;59655;42.590;23.364;2023-04-28T06:13:39;91785.13;;;5.56
71807;BMP280;59655;42.590;23.364;2023-04-28T06:16:05;91781.72;;;5.61
71807;BMP280;59655;42.590;23.364;2023-04-28T06:18:31;91782.66;;;5.64
71807;BMP280;59655;42.590;23.364;2023-04-28T06:20:57;91790.50;;;5.70
71807;BMP280;59655;42.590;23.364;2023-04-28T06:23:22;91792.47;;;5.63
71807;BMP280;59655;42.590;23.364;2023-04-28T06:25:48;91798.09;;;5.79
71807;BMP280;59655;42.590;23.364;2023-04-28T06:28:13;91804.63;;;5.66
71807;BMP280;59655;42.590;23.364;2023-04-28T06:30:39;91798.84;;;5.74
71807;BMP280;59655;42.590;23.364;2023-04-28T06:33:05;91799.31;;;5.78
71807;BMP280;59655;42.590;23.364;2023-04-28T06:35:30;91797.38;;;5.78
71807;BMP280;59655;42.590;23.364;2023-04-28T06:37:57;91796.34;;;5.87
71807;BMP280;59655;42.590;23.364;2023-04-28T06:40:22;91799.44;;;5.91
71807;BMP280;59655;42.590;23.364;2023-04-28T06:42:47;91794.19;;;5.85
71807;BMP280;59655;42.590;23.364;2023-04-28T06:45:13;91798.25;;;5.86
71807;BMP280;59655;42.590;23.364;2023-04-28T06:47:38;91801.84;;;5.89
71807;BMP280;59655;42.590;23.364;2023-04-28T06:50:05;91786.91;;;5.97
71807;BMP280;59655;42.590;23.364;2023-04-28T06:52:31;91785.16;;;6.05
71807;BMP280;59655;42.590;23.364;2023-04-28T06:54:56;91781.63;;;5.97
71807;BMP280;59655;42.590;23.364;2023-04-28T06:57:22;91786.09;;;6.08
71807;BMP280;59655;42.590;23.364;2023-04-28T06:59:47;91789.22;;;6.06
71807;BMP280;59655;42.590;23.364;2023-04-28T07:02:12;91795.13;;;6.13
71807;BMP280;59655;42.590;23.364;2023-04-28T07:04:38;91794.09;;;6.21
71807;BMP280;59655;42.590;23.364;2023-04-28T07:07:03;91805.84;;;6.20
71807;BMP280;59655;42.590;23.364;2023-04-28T07:09:35;91799.34;;;6.21
71807;BMP280;59655;42.590;23.364;2023-04-28T07:12:02;91807.47;;;6.23
71807;BMP280;59655;42.590;23.364;2023-04-28T07:14:28;91802.91;;;6.24
71807;BMP280;59655;42.590;23.364;2023-04-28T07:16:54;91806.78;;;6.23
71807;BMP280;59655;42.590;23.364;2023-04-28T07:19:19;91799.50;;;6.29
71807;BMP280;59655;42.590;23.364;2023-04-28T07:21:44;91797.06;;;6.37
71807;BMP280;59655;42.590;23.364;2023-04-28T07:24:10;91801.09;;;6.38
71807;BMP280;59655;42.590;23.364;2023-04-28T07:26:35;91798.97;;;6.36
71807;BMP280;59655;42.590;23.364;2023-04-28T07:29:01;91794.28;;;6.48
71807;BMP280;59655;42.590;23.364;2023-04-28T07:31:26;91801.75;;;6.44
71807;BMP280;59655;42.590;23.364;2023-04-28T07:33:53;91791.69;;;6.42
71807;BMP280;59655;42.590;23.364;2023-04-28T07:36:18;91797.88;;;6.51
71807;BMP280;59655;42.590;23.364;2023-04-28T07:38:43;91797.50;;;6.60
71807;BMP280;59655;42.590;23.364;2023-04-28T07:41:09;91801.28;;;6.64
71807;BMP280;59655;42.590;23.364;2023-04-28T07:43:34;91796.72;;;6.65
71807;BMP280;59655;42.590;23.364;2023-04-28T07:45:59;91798.59;;;6.70
71807;BMP280;59655;42.590;23.364;2023-04-28T07:48:25;91804.69;;;6.78
71807;BMP280;59655;42.590;23.364;2023-04-28T07:50:52;91804.78;;;6.73
71807;BMP280;59655;42.590;23.364;2023-04-28T07:53:17;91804.50;;;6.76
71807;BMP280;59655;42.590;23.364;2023-04-28T07:55:42;91802.00;;;6.84
71807;BMP280;59655;42.590;23.364;2023-04-28T07:58:10;91805.06;;;6.88
71807;BMP280;59655;42.590;23.364;2023-04-28T08:00:36;91799.50;;;6.91
71807;BMP280;59655;42.590;23.364;2023-04-28T08:03:01;91800.91;;;6.93
71807;BMP280;59655;42.590;23.364;2023-04-28T08:05:27;91799.22;;;6.95
71807;BMP280;59655;42.590;23.364;2023-04-28T08:07:52;91800.44;;;7.13
71807;BMP280;59655;42.590;23.364;2023-04-28T08:10:17;91804.13;;;7.04
71807;BMP280;59655;42.590;23.364;2023-04-28T08:12:43;91801.94;;;7.08
71807;BMP280;59655;42.590;23.364;2023-04-28T08:15:10;91800.44;;;7.13
71807;BMP280;59655;42.590;23.364;2023-04-28T08:17:35;91801.19;;;7.27
71807;BMP280;59655;42.590;23.364;2023-04-28T08:20:02;91812.25;;;7.25
71807;BMP280;59655;42.590;23.364;2023-04-28T08:22:28;91814.44;;;7.21
71807;BMP280;59655;42.590;23.364;2023-04-28T08:24:53;91807.97;;;7.22
71807;BMP280;59655;42.590;23.364;2023-04-28T08:27:19;91807.25;;;7.22
71807;BMP280;59655;42.590;23.364;2023-04-28T08:29:45;91802.41;;;7.26
71807;BMP280;59655;42.590;23.364;2023-04-28T08:32:10;91801.91;;;7.27
71807;BMP280;59655;42.590;23.364;2023-04-28T08:34:35;91801.09;;;7.32
71807;BMP280;59655;42.590;23.364;2023-04-28T08:37:01;91801.53;;;7.37
71807;BMP280;59655;42.590;23.364;2023-04-28T08:39:26;91796.47;;;7.39
71807;BMP280;59655;42.590;23.364;2023-04-28T08:41:52;91799.09;;;7.39
71807;BMP280;59655;42.590;23.364;2023-04-28T08:44:18;91796.06;;;7.48
71807;BMP280;59655;42.590;23.364;2023-04-28T08:46:44;91793.44;;;7.48
71807;BMP280;59655;42.590;23.364;2023-04-28T08:49:13;91792.72;;;7.47
71807;BMP280;59655;42.590;23.364;2023-04-28T08:51:49;91795.09;;;7.51
71807;BMP280;59655;42.590;23.364;2023-04-28T08:54:16;91797.84;;;7.59
71807;BMP280;59655;42.590;23.364;2023-04-28T08:56:41;91802.81;;;7.62
71807;BMP280;59655;42.590;23.364;2023-04-28T08:59:10;91794.47;;;7.58
71807;BMP280;59655;42.590;23.364;2023-04-28T09:01:37;91790.19;;;7.55
71807;BMP280;59655;42.590;23.364;2023-04-28T09:04:03;91785.06;;;7.63
71807;BMP280;59655;42.590;23.364;2023-04-28T09:06:34;91793.59;;;7.69
71807;BMP280;59655;42.590;23.364;2023-04-28T09:14:16;91784.97;;;7.82
71807;BMP280;59655;42.590;23.364;2023-04-28T09:16:41;91776.63;;;7.91
71807;BMP280;59655;42.590;23.364;2023-04-28T09:19:07;91767.09;;;7.88
71807;BMP280;59655;42.590;23.364;2023-04-28T09:21:54;91775.03;;;8.01
71807;BMP280;59655;42.590;23.364;2023-04-28T09:24:35;91773.22;;;7.96
71807;BMP280;59655;42.590;23.364;2023-04-28T09:27:03;91768.72;;;8.04
71807;BMP280;59655;42.590;23.364;2023-04-28T09:29:30;91763.81;;;8.08
71807;BMP280;59655;42.590;23.364;2023-04-28T09:32:20;91765.59;;;8.06
71807;BMP280;59655;42.590;23.364;2023-04-28T09:34:50;91767.81;;;8.15
71807;BMP280;59655;42.590;23.364;2023-04-28T09:37:17;91758.94;;;8.26
71807;BMP280;59655;42.590;23.364;2023-04-28T09:39:48;91768.31;;;8.27
71807;BMP280;59655;42.590;23.364;2023-04-28T09:42:37;91756.94;;;8.19
71807;BMP280;59655;42.590;23.364;2023-04-28T09:45:05;91752.03;;;8.23
71807;BMP280;59655;42.590;23.364;2023-04-28T09:47:32;91750.91;;;8.31
71807;BMP280;59655;42.590;23.364;2023-04-28T09:50:01;91761.69;;;8.33
71807;BMP280;59655;42.590;23.364;2023-04-28T09:52:27;91755.28;;;8.42
71807;BMP280;59655;42.590;23.364;2023-04-28T09:54:54;91756.25;;;8.52
71807;BMP280;59655;42.590;23.364;2023-04-28T09:57:20;91754.13;;;8.51
71807;BMP280;59655;42.590;23.364;2023-04-28T09:59:48;91742.03;;;8.42
71807;BMP280;59655;42.590;23.364;2023-04-28T10:02:15;91739.78;;;8.59
71807;BMP280;59655;42.590;23.364;2023-04-28T10:04:44;91744.75;;;8.63
71807;BMP280;59655;42.590;23.364;2023-04-28T10:07:12;91729.22;;;8.59
71807;BMP280;59655;42.590;23.364;2023-04-28T10:09:39;91731.44;;;8.55
71807;BMP280;59655;42.590;23.364;2023-04-28T10:12:09;91724.53;;;8.52
71807;BMP280;59655;42.590;23.364;2023-04-28T10:14:35;91728.50;;;8.59
71807;BMP280;59655;42.590;23.364;2023-04-28T10:17:02;91728.81;;;8.55
71807;BMP280;59655;42.590;23.364;2023-04-28T10:19:29;91723.91;;;8.59
71807;BMP280;59655;42.590;23.364;2023-04-28T10:27:44;91715.63;;;8.76
71807;BMP280;59655;42.590;23.364;2023-04-28T10:30:21;91721.81;;;8.79
71807;BMP280;59655;42.590;23.364;2023-04-28T10:32:47;91727.09;;;8.79
71807;BMP280;59655;42.590;23.364;2023-04-28T10:43:00;91716.22;;;9.03
71807;BMP280;59655;42.590;23.364;2023-04-28T10:56:06;91707.41;;;9.30
71807;BMP280;59655;42.590;23.364;2023-04-28T10:58:32;91688.19;;;9.29
71807;BMP280;59655;42.590;23.364;2023-04-28T11:03:49;91695.44;;;9.29
71807;BMP280;59655;42.590;23.364;2023-04-28T11:06:22;91696.22;;;9.44
71807;BMP280;59655;42.590;23.364;2023-04-28T11:08:56;91690.03;;;9.42
71807;BMP280;59655;42.590;23.364;2023-04-28T11:11:25;91697.47;;;9.43
71807;BMP280;59655;42.590;23.364;2023-04-28T11:13:53;91700.34;;;9.53
71807;BMP280;59655;42.590;23.364;2023-04-28T11:16:21;91691.75;;;9.68
71807;BMP280;59655;42.590;23.364;2023-04-28T11:18:56;91689.09;;;9.68
71807;BMP280;59655;42.590;23.364;2023-04-28T11:21:24;91675.97;;;9.83
71807;BMP280;59655;42.590;23.364;2023-04-28T11:23:50;91683.09;;;9.67
71807;BMP280;59655;42.590;23.364;2023-04-28T11:26:15;91681.88;;;9.69
71807;BMP280;59655;42.590;23.364;2023-04-28T11:28:47;91679.72;;;9.59
71807;BMP280;59655;42.590;23.364;2023-04-28T11:31:14;91683.16;;;9.75
71807;BMP280;59655;42.590;23.364;2023-04-28T11:36:34;91666.22;;;9.78
71807;BMP280;59655;42.590;23.364;2023-04-28T11:39:02;91664.03;;;9.69
71807;BMP280;59655;42.590;23.364;2023-04-28T11:41:30;91670.94;;;9.72
71807;BMP280;59655;42.590;23.364;2023-04-28T11:43:56;91661.13;;;9.80
71807;BMP280;59655;42.590;23.364;2023-04-28T11:46:23;91673.06;;;10.10
71807;BMP280;59655;42.590;23.364;2023-04-28T11:48:59;91671.97;;;10.05
71807;BMP280;59655;42.590;23.364;2023-04-28T11:51:34;91660.13;;;10.06
71807;BMP280;59655;42.590;23.364;2023-04-28T11:54:01;91659.13;;;10.17
71807;BMP280;59655;42.590;23.364;2023-04-28T11:56:28;91664.25;;;10.15
71807;BMP280;59655;42.590;23.364;2023-04-28T12:01:26;91662.84;;;10.29
71807;BMP280;59655;42.590;23.364;2023-04-28T12:03:51;91660.06;;;10.43
71807;BMP280;59655;42.590;23.364;2023-04-28T12:06:17;91665.38;;;10.50
71807;BMP280;59655;42.590;23.364;2023-04-28T12:08:43;91655.50;;;10.59
71807;BMP280;59655;42.590;23.364;2023-04-28T12:11:09;91655.16;;;10.70
71807;BMP280;59655;42.590;23.364;2023-04-28T12:13:36;91651.09;;;10.84
71807;BMP280;59655;42.590;23.364;2023-04-28T12:16:03;91649.84;;;11.08
71807;BMP280;59655;42.590;23.364;2023-04-28T12:18:34;91642.38;;;11.30
71807;BMP280;59655;42.590;23.364;2023-04-28T12:21:00;91635.53;;;11.75
71807;BMP280;59655;42.590;23.364;2023-04-28T12:23:30;91639.19;;;11.95
71807;BMP280;59655;42.590;23.364;2023-04-28T12:25:59;91630.94;;;12.41
71807;BMP280;59655;42.590;23.364;2023-04-28T12:28:40;91634.31;;;12.91
71807;BMP280;59655;42.590;23.364;2023-04-28T12:31:07;91627.47;;;14.12
71807;BMP280;59655;42.590;23.364;2023-04-28T12:33:33;91642.97;;;15.75
71807;BMP280;59655;42.590;23.364;2023-04-28T12:36:02;91627.56;;;16.45
71807;BMP280;59655;42.590;23.364;2023-04-28T12:38:29;91634.28;;;17.75
71807;BMP280;59655;42.590;23.364;2023-04-28T12:40:55;91623.28;;;18.28
71807;BMP280;59655;42.590;23.364;2023-04-28T12:43:21;91623.97;;;19.13
71807;BMP280;59655;42.590;23.364;2023-04-28T12:45:51;91625.13;;;20.25
71807;BMP280;59655;42.590;23.364;2023-04-28T12:48:21;91625.53;;;20.20
71807;BMP280;59655;42.590;23.364;2023-04-28T12:50:48;91625.28;;;20.85
71807;BMP280;59655;42.590;23.364;2023-04-28T12:53:13;91629.28;;;20.28
71807;BMP280;59655;42.590;23.364;2023-04-28T12:55:38;91615.91;;;20.72
71807;BMP280;59655;42.590;23.364;2023-04-28T12:58:04;91614.50;;;21.73
71807;BMP280;59655;42.590;23.364;2023-04-28T13:00:30;91616.00;;;21.47
71807;BMP280;59655;42.590;23.364;2023-04-28T13:02:56;91615.78;;;21.88
71807;BMP280;59655;42.590;23.364;2023-04-28T13:05:21;91614.06;;;21.95
71807;BMP280;59655;42.590;23.364;2023-04-28T13:07:47;91615.97;;;22.24
71807;BMP280;59655;42.590;23.364;2023-04-28T13:10:15;91606.38;;;21.89
71807;BMP280;59655;42.590;23.364;2023-04-28T13:12:40;91611.94;;;22.41
71807;BMP280;59655;42.590;23.364;2023-04-28T13:15:10;91606.72;;;23.14
71807;BMP280;59655;42.590;23.364;2023-04-28T13:17:35;91597.97;;;21.67
71807;BMP280;59655;42.590;23.364;2023-04-28T13:20:01;91605.63;;;22.52
71807;BMP280;59655;42.590;23.364;2023-04-28T13:22:28;91608.13;;;22.82
71807;BMP280;59655;42.590;23.364;2023-04-28T13:24:53;91604.28;;;23.05
71807;BMP280;59655;42.590;23.364;2023-04-28T13:27:18;91603.47;;;23.18
71807;BMP280;59655;42.590;23.364;2023-04-28T13:29:44;91606.91;;;23.56
71807;BMP280;59655;42.590;23.364;2023-04-28T13:32:09;91607.13;;;23.62
71807;BMP280;59655;42.590;23.364;2023-04-28T13:34:35;91605.31;;;23.69
71807;BMP280;59655;42.590;23.364;2023-04-28T13:37:02;91602.91;;;23.97
71807;BMP280;59655;42.590;23.364;2023-04-28T13:39:27;91602.72;;;24.11
71807;BMP280;59655;42.590;23.364;2023-04-28T13:41:53;91608.66;;;23.50
71807;BMP280;59655;42.590;23.364;2023-04-28T13:44:18;91605.75;;;23.43
71807;BMP280;59655;42.590;23.364;2023-04-28T13:46:44;91605.06;;;23.07
71807;BMP280;59655;42.590;23.364;2023-04-28T13:49:10;91610.44;;;23.61
71807;BMP280;59655;42.590;23.364;2023-04-28T13:51:36;91607.53;;;23.19
71807;BMP280;59655;42.590;23.364;2023-04-28T13:54:01;91593.63;;;22.91
71807;BMP280;59655;42.590;23.364;2023-04-28T13:56:34;91592.16;;;23.61
71807;BMP280;59655;42.590;23.364;2023-04-28T13:59:00;91592.25;;;23.45
71807;BMP280;59655;42.590;23.364;2023-04-28T14:01:26;91599.19;;;23.13
71807;BMP280;59655;42.590;23.364;2023-04-28T14:03:52;91594.78;;;23.97
71807;BMP280;59655;42.590;23.364;2023-04-28T14:06:17;91597.44;;;23.57
71807;BMP280;59655;42.590;23.364;2023-04-28T14:08:43;91589.38;;;23.21
71807;BMP280;59655;42.590;23.364;2023-04-28T14:11:08;91585.66;;;23.13
71807;BMP280;59655;42.590;23.364;2023-04-28T14:13:36;91587.66;;;23.12
71807;BMP280;59655;42.590;23.364;2023-04-28T14:16:02;91601.41;;;22.65
71807;BMP280;59655;42.590;23.364;2023-04-28T14:18:27;91596.47;;;23.13
71807;BMP280;59655;42.590;23.364;2023-04-28T14:20:53;91601.69;;;21.74
71807;BMP280;59655;42.590;23.364;2023-04-28T14:23:19;91602.78;;;21.69
71807;BMP280;59655;42.590;23.364;2023-04-28T14:25:45;91602.44;;;22.24
71807;BMP280;59655;42.590;23.364;2023-04-28T14:28:10;91595.97;;;22.15
71807;BMP280;59655;42.590;23.364;2023-04-28T14:30:36;91588.94;;;21.77
71807;BMP280;59655;42.590;23.364;2023-04-28T14:33:01;91589.69;;;21.47
71807;BMP280;59655;42.590;23.364;2023-04-28T14:35:27;91583.03;;;21.35
71807;BMP280;59655;42.590;23.364;2023-04-28T14:37:54;91586.50;;;20.92
71807;BMP280;59655;42.590;23.364;2023-04-28T14:40:20;91567.84;;;21.12